Tocsin, Indiana
Current Conditions -  °F | °C
As of 5:08 PM on Sunday 23 Nov 2014 (Local Time) from KFWA Reporting Station
Light Rain Light Rain  
Wind Chill: 52°   Ceiling: 3100
Heat Index: 52°   Visibility: 3mi
Dew Point: 50°   Wind: 12mph
Humidity: 93%   Direction: 110°ESE
Pressure: 29.55"   Gusts: NA
Location:  40.8661°N, 85.1531°W
Report Text: KFWA 232208Z 11010KT 3SM -RA BR FEW007 SCT013 OVC031 11/10 A2955 RMK AO2 P0004 T01110100
Loading
Personal Weather Stations






























Interactive Weather Map New forecast layout! Learn more

10-Day Weather Forecast

Advertisements
Track Severe Weather on mobile